This is the latest recevied weather packets stored in our database for station/object WZ9ZZZ-1. If no packets are shown the sender has not sent any weather packets the latest 1 day(s).
| Time | Temp. | Humidity | Pressure | Rain* | Wind** | Luminosity | Snow |
|---|---|---|---|---|---|---|---|
| 1836274559 | 27.22° C | 82% | 1019.2 hPa | 0 mm | 0 m/s | 0 W/m² | - |
| 1836274414 | 27.22° C | 82% | 1019.4 hPa | 0 mm | 0 m/s | 0 W/m² | - |
| 1836274258 | 27.22° C | 82% | 1019.4 hPa | 0 mm | 0 m/s | 0 W/m² | - |
| 1836274112 | 27.22° C | 82% | 1019.3 hPa | 0 mm | 0 m/s | 0 W/m² | - |
| 1836273958 | 27.22° C | 82% | 1019.4 hPa | 0 mm | 0 m/s | 0 W/m² | - |
| 1778047648 | 25° C | 91% | 1013.1 hPa | 0 mm | 0.89 m/s, 83° | 0 W/m² | - |
| 1778047345 | 25° C | 91% | 1013.2 hPa | 0 mm | 1.34 m/s, 245° | 0 W/m² | - |
| 1778047042 | 25° C | 91% | 1013.2 hPa | 0 mm | 1.34 m/s, 236° | 0 W/m² | - |
| 1778046738 | 25° C | 91% | 1013.2 hPa | 0 mm | 0.89 m/s, 94° | 0 W/m² | - |
| 1778046436 | 25° C | 91% | 1013.3 hPa | 0 mm | 0.45 m/s, 197° | 0 W/m² | - |
| 1778046132 | 25° C | 91% | 1013.4 hPa | 0 mm | 0.45 m/s, 134° | 0 W/m² | - |
| 1778045829 | 25° C | 91% | 1013.2 hPa | 0 mm | 0.45 m/s, 165° | 0 W/m² | - |
| 1778045528 | 25° C | 91% | 1013.4 hPa | 0 mm | 1.79 m/s, 273° | 0 W/m² | - |
| 1778045226 | 25° C | 91% | 1013.3 hPa | 0 mm | 0 m/s | 0 W/m² | - |
| 1778044924 | 25° C | 91% | 1013.3 hPa | 0 mm | 0.89 m/s, 159° | 0 W/m² | - |
| 1778044621 | 25° C | 91% | 1013.4 hPa | 0 mm | 0.45 m/s, 129° | 0 W/m² | - |
| 1778044317 | 25° C | 91% | 1013.5 hPa | 0 mm | 0.89 m/s, 281° | 0 W/m² | - |
| 1778044015 | 25° C | 91% | 1013.6 hPa | 0 mm | 0 m/s | 0 W/m² | - |
| 1778043712 | 25° C | 91% | 1013.7 hPa | 0 mm | 0.45 m/s, 120° | 0 W/m² | - |
| 1778043408 | 25° C | 91% | 1013.5 hPa | 0 mm | 1.79 m/s, 223° | 0 W/m² | - |
| 1778043105 | 25° C | 91% | 1013.6 hPa | 0 mm | 1.79 m/s, 240° | 0 W/m² | - |
| 1778042803 | 25° C | 91% | 1013.4 hPa | 0 mm | 1.34 m/s, 208° | 0 W/m² | - |
| 1778042500 | 25° C | 91% | 1013.4 hPa | 0 mm | 1.79 m/s, 193° | 0 W/m² | - |
| 1778042197 | 25° C | 91% | 1013.2 hPa | 0 mm | 2.24 m/s, 208° | 0 W/m² | - |
| 1778041895 | 25° C | 91% | 1013.3 hPa | 0 mm | 0.45 m/s, 165° | 0 W/m² | - |
* Rain latest hour (hover to see other rain measurements)
** Current wind speed in m/s (hover to see current wind gust speed)